Wetterdaten: Woche 05.03.12 - 11.03.12 (KW10)
Datum Zeit Temp. A. Feuchte A. Luftdruck Regen Wind Richtung Taupunkt Windchill Windben
05.03.2012 00:00 0,6 C 70 % 1020,3 hPa 0,0 l/m 0,0 km/h N -4,3 C 0,6 C 0,0 km/h
05.03.2012 01:00 -0,5 C 74 % 1020,3 hPa 0,0 l/m 0,0 km/h N -4,7 C -0,5 C 0,8 km/h
05.03.2012 02:00 -0,8 C 76 % 1020,0 hPa 0,0 l/m 0,0 km/h N -4,4 C -0,8 C 0,0 km/h
05.03.2012 03:00 -1,5 C 76 % 1019,8 hPa 0,0 l/m 0,0 km/h N -5,2 C -1,5 C 0,0 km/h
05.03.2012 04:00 -2,7 C 79 % 1019,8 hPa 0,0 l/m 0,0 km/h N -5,9 C -2,7 C 0,0 km/h
05.03.2012 05:00 -3,5 C 81 % 1019,8 hPa 0,0 l/m 0,0 km/h N -6,3 C -3,5 C 0,0 km/h
05.03.2012 06:00 -4,0 C 82 % 1019,9 hPa 0,0 l/m 0,0 km/h N -6,6 C -4,0 C 0,0 km/h
05.03.2012 07:00 -3,9 C 84 % 1020,5 hPa 0,0 l/m 0,0 km/h N -6,3 C -3,9 C 0,0 km/h
05.03.2012 08:00 -0,8 C 84 % 1020,7 hPa 0,0 l/m 0,3 km/h N -3,2 C -0,8 C 4,0 km/h
05.03.2012 09:00 2,6 C 73 % 1020,6 hPa 0,0 l/m 2,2 km/h N -1,9 C 2,6 C 12,0 km/h
05.03.2012 10:00 4,7 C 62 % 1020,2 hPa 0,0 l/m 4,2 km/h N -2,0 C 4,7 C 13,7 km/h
05.03.2012 11:00 7,0 C 55 % 1020,2 hPa 0,0 l/m 3,5 km/h N -1,4 C 7,0 C 13,7 km/h
05.03.2012 12:00 8,4 C 51 % 1020,1 hPa 0,0 l/m 3,3 km/h N -1,1 C 8,4 C 14,1 km/h
05.03.2012 13:00 9,1 C 48 % 1019,9 hPa 0,0 l/m 3,3 km/h N -1,4 C 9,1 C 14,1 km/h
05.03.2012 14:00 9,3 C 46 % 1020,0 hPa 0,0 l/m 2,0 km/h N -1,7 C 9,3 C 7,6 km/h
05.03.2012 15:00 8,8 C 46 % 1020,0 hPa 0,0 l/m 2,4 km/h N -2,1 C 8,8 C 8,0 km/h
05.03.2012 16:00 8,0 C 53 % 1020,5 hPa 0,0 l/m 4,8 km/h N -1,2 C 6,9 C 13,7 km/h
05.03.2012 17:00 5,5 C 66 % 1021,3 hPa 0,0 l/m 11,0 km/h N -0,4 C 2,1 C 31,0 km/h
05.03.2012 18:00 4,6 C 70 % 1021,8 hPa 0,0 l/m 10,0 km/h N -0,5 C 1,7 C 26,5 km/h
05.03.2012 19:00 4,2 C 71 % 1021,8 hPa 0,0 l/m 11,4 km/h N -0,6 C 0,2 C 28,2 km/h
05.03.2012 20:00 3,8 C 72 % 1022,0 hPa 0,0 l/m 10,9 km/h N -0,7 C 0,2 C 24,5 km/h
05.03.2012 21:00 3,6 C 74 % 1022,3 hPa 0,0 l/m 10,9 km/h N -0,7 C -0,1 C 27,4 km/h
05.03.2012 22:00 3,3 C 74 % 1022,5 hPa 0,0 l/m 7,8 km/h N -0,8 C 2,1 C 20,5 km/h
05.03.2012 23:00 3,5 C 73 % 1022,7 hPa 0,0 l/m 9,5 km/h N -0,9 C 0,8 C 22,1 km/h
06.03.2012 00:00 3,2 C 74 % 1022,7 hPa 0,0 l/m 5,8 km/h N -1,1 C 2,9 C 18,1 km/h
06.03.2012 01:00 3,0 C 75 % 1022,7 hPa 0,0 l/m 6,4 km/h N -1,1 C 2,8 C 16,9 km/h
06.03.2012 02:00 3,0 C 75 % 1022,5 hPa 0,0 l/m 5,2 km/h N -1,1 C 2,8 C 15,3 km/h
06.03.2012 03:00 2,4 C 78 % 1022,5 hPa 0,0 l/m 4,9 km/h N -1,1 C 2,4 C 16,1 km/h
06.03.2012 04:00 1,7 C 80 % 1023,0 hPa 0,0 l/m 3,4 km/h N -1,3 C 1,7 C 9,7 km/h
06.03.2012 05:00 1,2 C 82 % 1023,3 hPa 0,0 l/m 2,1 km/h N -1,5 C 1,2 C 7,2 km/h
06.03.2012 06:00 1,6 C 83 % 1024,0 hPa 0,0 l/m 4,7 km/h N -1,0 C 1,6 C 10,1 km/h
06.03.2012 07:00 1,7 C 81 % 1024,5 hPa 0,0 l/m 5,4 km/h N -1,2 C 1,7 C 12,1 km/h
06.03.2012 08:00 2,0 C 70 % 1025,2 hPa 0,0 l/m 4,9 km/h N -3,1 C 2,0 C 10,5 km/h
06.03.2012 09:00 2,5 C 51 % 1025,7 hPa 0,0 l/m 4,5 km/h N -6,5 C 2,5 C 12,1 km/h
06.03.2012 10:00 3,3 C 50 % 1026,0 hPa 0,0 l/m 5,3 km/h N -6,1 C 3,3 C 14,5 km/h
06.03.2012 11:00 4,1 C 48 % 1026,1 hPa 0,0 l/m 5,9 km/h N -5,9 C 4,0 C 15,3 km/h
06.03.2012 12:00 4,8 C 49 % 1026,1 hPa 0,0 l/m 5,8 km/h N -5,2 C 4,8 C 15,7 km/h
06.03.2012 13:00 5,4 C 46 % 1025,9 hPa 0,0 l/m 6,0 km/h N -5,3 C 5,3 C 16,1 km/h
06.03.2012 14:00 5,6 C 45 % 1025,8 hPa 0,0 l/m 7,2 km/h N -5,5 C 4,8 C 17,7 km/h
06.03.2012 15:00 5,3 C 45 % 1025,9 hPa 0,0 l/m 6,0 km/h N -5,7 C 5,2 C 16,5 km/h
06.03.2012 16:00 4,3 C 47 % 1026,3 hPa 0,0 l/m 5,8 km/h N -6,0 C 4,2 C 16,1 km/h
06.03.2012 17:00 3,2 C 47 % 1026,8 hPa 0,0 l/m 5,3 km/h N -7,1 C 2,9 C 14,1 km/h
06.03.2012 18:00 1,5 C 47 % 1027,7 hPa 0,0 l/m 1,2 km/h N -8,7 C 1,5 C 7,6 km/h
06.03.2012 19:00 0,3 C 49 % 1028,4 hPa 0,0 l/m 1,7 km/h N -9,3 C 0,3 C 7,6 km/h
06.03.2012 20:00 -0,1 C 50 % 1029,3 hPa 0,0 l/m 2,2 km/h N -9,3 C -0,1 C 9,3 km/h
06.03.2012 21:00 -1,2 C 52 % 1029,8 hPa 0,0 l/m 0,5 km/h N -9,8 C -1,2 C 4,8 km/h
06.03.2012 22:00 -2,0 C 56 % 1030,1 hPa 0,0 l/m 0,0 km/h N -9,6 C -2,0 C 0,4 km/h
06.03.2012 23:00 -3,3 C 64 % 1030,2 hPa 0,0 l/m 0,0 km/h N -9,2 C -3,3 C 0,0 km/h
07.03.2012 00:00 -3,7 C 65 % 1030,4 hPa 0,0 l/m 0,0 km/h N -9,3 C -3,7 C 1,6 km/h
07.03.2012 01:00 -4,6 C 69 % 1030,5 hPa 0,0 l/m 0,0 km/h N -9,4 C -4,6 C 0,0 km/h
07.03.2012 02:00 -5,5 C 73 % 1030,4 hPa 0,0 l/m 0,0 km/h N -9,6 C -5,5 C 0,0 km/h
07.03.2012 03:00 -5,3 C 73 % 1030,3 hPa 0,0 l/m 0,0 km/h N -9,3 C -5,3 C 0,4 km/h
07.03.2012 04:00 -6,2 C 76 % 1030,2 hPa 0,0 l/m 0,0 km/h N -9,8 C -6,2 C 0,0 km/h
07.03.2012 05:00 -6,9 C 79 % 1030,1 hPa 0,0 l/m 0,0 km/h N -9,9 C -6,9 C 0,0 km/h
07.03.2012 06:00 -7,6 C 82 % 1030,3 hPa 0,0 l/m 0,0 km/h N -10,2 C -7,6 C 0,0 km/h
07.03.2012 07:00 -6,1 C 80 % 1030,5 hPa 0,0 l/m 0,0 km/h N -9,1 C -6,1 C 0,0 km/h
07.03.2012 08:00 -3,2 C 70 % 1030,4 hPa 0,0 l/m 0,3 km/h N -7,9 C -3,2 C 2,8 km/h
07.03.2012 09:00 -1,6 C 66 % 1030,4 hPa 0,0 l/m 1,4 km/h N -7,1 C -1,6 C 5,2 km/h
07.03.2012 10:00 0,3 C 59 % 1030,0 hPa 0,0 l/m 2,5 km/h N -6,8 C 0,3 C 10,4 km/h
07.03.2012 11:00 2,0 C 52 % 1029,2 hPa 0,0 l/m 4,2 km/h N -6,8 C 2,0 C 12,5 km/h
07.03.2012 12:00 3,8 C 49 % 1028,0 hPa 0,0 l/m 2,6 km/h N -5,8 C 3,8 C 7,2 km/h
07.03.2012 13:00 4,8 C 46 % 1026,8 hPa 0,0 l/m 3,7 km/h N -5,9 C 4,8 C 11,3 km/h
07.03.2012 14:00 5,7 C 43 % 1025,7 hPa 0,0 l/m 3,3 km/h N -5,8 C 5,7 C 13,3 km/h
07.03.2012 15:00 5,6 C 43 % 1024,8 hPa 0,0 l/m 3,8 km/h N -6,0 C 5,6 C 14,1 km/h
07.03.2012 16:00 5,7 C 43 % 1023,8 hPa 0,0 l/m 2,5 km/h N -5,9 C 5,7 C 13,3 km/h
07.03.2012 17:00 4,7 C 46 % 1023,0 hPa 0,0 l/m 1,5 km/h N -6,0 C 4,7 C 8,0 km/h
07.03.2012 18:00 3,3 C 51 % 1022,7 hPa 0,0 l/m 1,2 km/h N -5,8 C 3,3 C 7,2 km/h
07.03.2012 19:00 2,7 C 54 % 1021,9 hPa 0,0 l/m 2,3 km/h N -5,7 C 2,7 C 8,1 km/h
07.03.2012 20:00 1,5 C 58 % 1021,3 hPa 0,0 l/m 0,9 km/h N -6,0 C 1,5 C 4,8 km/h
07.03.2012 21:00 -1,8 C 70 % 1020,7 hPa 0,0 l/m 0,0 km/h N -6,6 C -1,8 C 0,0 km/h
07.03.2012 22:00 -2,0 C 72 % 1020,1 hPa 0,0 l/m 0,0 km/h N -6,5 C -2,0 C 0,4 km/h
07.03.2012 23:00 -1,0 C 68 % 1019,6 hPa 0,0 l/m 0,0 km/h N -6,3 C -1,0 C 0,4 km/h
08.03.2012 00:00 -0,5 C 64 % 1019,1 hPa 0,0 l/m 0,0 km/h N -6,5 C -0,5 C 1,6 km/h
08.03.2012 01:00 -1,0 C 64 % 1018,9 hPa 0,0 l/m 0,2 km/h N -6,9 C -1,0 C 2,0 km/h
08.03.2012 02:00 -2,0 C 71 % 1018,7 hPa 0,0 l/m 0,0 km/h N -6,5 C -2,0 C 0,0 km/h
08.03.2012 03:00 -1,2 C 71 % 1018,5 hPa 0,0 l/m 0,0 km/h N -5,7 C -1,2 C 0,0 km/h
08.03.2012 04:00 -1,4 C 72 % 1018,6 hPa 0,0 l/m 0,0 km/h N -5,7 C -1,4 C 0,0 km/h
08.03.2012 05:00 -1,5 C 77 % 1018,7 hPa 0,0 l/m 0,0 km/h N -5,1 C -1,5 C 0,0 km/h
08.03.2012 06:00 -1,0 C 75 % 1019,0 hPa 0,0 l/m 0,0 km/h N -5,0 C -1,0 C 0,0 km/h
08.03.2012 07:00 -0,7 C 72 % 1019,5 hPa 0,0 l/m 0,0 km/h N -5,1 C -0,7 C 0,0 km/h
08.03.2012 08:00 0,6 C 63 % 1019,9 hPa 0,0 l/m 0,5 km/h N -5,5 C 0,6 C 4,4 km/h
08.03.2012 09:00 1,2 C 62 % 1020,5 hPa 0,0 l/m 1,4 km/h N -5,2 C 1,2 C 5,6 km/h
08.03.2012 10:00 1,3 C 71 % 1021,1 hPa 0,0 l/m 1,1 km/h N -3,4 C 1,3 C 6,4 km/h
08.03.2012 11:00 1,5 C 77 % 1021,7 hPa 0,0 l/m 1,4 km/h N -2,1 C 1,5 C 6,0 km/h
08.03.2012 12:00 1,9 C 78 % 1022,0 hPa 0,8 l/m 2,3 km/h N -1,4 C 1,9 C 7,6 km/h
08.03.2012 13:00 2,4 C 82 % 1022,3 hPa 0,5 l/m 1,6 km/h N -0,4 C 2,4 C 6,4 km/h
08.03.2012 14:00 2,7 C 83 % 1022,6 hPa 0,3 l/m 0,5 km/h N 0,1 C 2,7 C 4,8 km/h
08.03.2012 15:00 2,8 C 83 % 1023,2 hPa 0,0 l/m 0,4 km/h N 0,2 C 2,8 C 4,4 km/h
08.03.2012 16:00 4,2 C 83 % 1023,8 hPa 0,3 l/m 3,7 km/h N 1,5 C 4,0 C 12,9 km/h
08.03.2012 17:00 5,1 C 82 % 1024,7 hPa 0,3 l/m 7,8 km/h N 2,2 C 3,9 C 19,3 km/h
08.03.2012 18:00 5,2 C 82 % 1025,6 hPa 0,0 l/m 7,8 km/h N 2,3 C 4,0 C 22,9 km/h
08.03.2012 19:00 5,2 C 82 % 1026,6 hPa 0,0 l/m 10,3 km/h N 2,4 C 2,1 C 22,1 km/h
08.03.2012 20:00 5,1 C 82 % 1027,6 hPa 0,0 l/m 9,4 km/h N 2,2 C 2,7 C 21,3 km/h
08.03.2012 21:00 5,1 C 80 % 1028,4 hPa 0,0 l/m 9,7 km/h N 1,9 C 2,6 C 20,5 km/h
08.03.2012 22:00 5,1 C 80 % 1029,3 hPa 0,0 l/m 8,8 km/h N 1,9 C 3,1 C 21,7 km/h
08.03.2012 23:00 5,0 C 78 % 1030,1 hPa 0,0 l/m 8,9 km/h N 1,4 C 3,0 C 20,1 km/h
09.03.2012 00:00 4,8 C 79 % 1030,8 hPa 0,0 l/m 8,9 km/h N 1,5 C 2,7 C 20,1 km/h
09.03.2012 01:00 4,9 C 77 % 1031,3 hPa 0,0 l/m 11,4 km/h N 1,1 C 1,0 C 22,5 km/h
09.03.2012 02:00 4,7 C 76 % 1031,8 hPa 0,0 l/m 12,4 km/h N 0,8 C 0,1 C 29,0 km/h
09.03.2012 03:00 4,5 C 75 % 1032,4 hPa 0,0 l/m 12,7 km/h N 0,4 C -0,3 C 25,7 km/h
09.03.2012 04:00 4,1 C 75 % 1032,9 hPa 0,0 l/m 10,4 km/h N 0,1 C 0,8 C 23,7 km/h
09.03.2012 05:00 3,5 C 77 % 1033,6 hPa 0,0 l/m 9,3 km/h N -0,2 C 0,9 C 21,7 km/h
09.03.2012 06:00 3,4 C 77 % 1034,1 hPa 0,0 l/m 12,0 km/h N -0,3 C -1,1 C 25,3 km/h
09.03.2012 07:00 3,4 C 77 % 1034,9 hPa 0,0 l/m 11,4 km/h N -0,2 C -0,6 C 24,5 km/h
09.03.2012 08:00 4,4 C 74 % 1035,5 hPa 0,0 l/m 14,3 km/h N 0,2 C -1,2 C 28,2 km/h
09.03.2012 09:00 5,6 C 69 % 1036,2 hPa 0,0 l/m 14,7 km/h N 0,3 C -0,1 C 28,2 km/h
09.03.2012 10:00 6,6 C 64 % 1036,5 hPa 0,0 l/m 12,9 km/h N 0,2 C 2,0 C 29,4 km/h
09.03.2012 11:00 7,0 C 60 % 1036,7 hPa 0,0 l/m 12,2 km/h N -0,2 C 3,0 C 27,0 km/h
09.03.2012 12:00 8,4 C 55 % 1036,5 hPa 0,0 l/m 12,2 km/h N -0,2 C 4,5 C 25,3 km/h
09.03.2012 13:00 8,4 C 50 % 1036,2 hPa 0,0 l/m 12,0 km/h N -1,4 C 4,6 C 24,5 km/h
09.03.2012 14:00 8,7 C 48 % 1036,0 hPa 0,0 l/m 12,3 km/h N -1,8 C 4,9 C 25,8 km/h
09.03.2012 15:00 8,6 C 46 % 1035,7 hPa 0,0 l/m 11,0 km/h N -2,4 C 5,5 C 23,7 km/h
09.03.2012 16:00 8,4 C 50 % 1035,7 hPa 0,0 l/m 9,5 km/h N -1,5 C 6,2 C 22,1 km/h
09.03.2012 17:00 7,4 C 55 % 1036,2 hPa 0,0 l/m 6,5 km/h N -1,1 C 6,6 C 13,7 km/h
09.03.2012 18:00 6,1 C 60 % 1036,8 hPa 0,0 l/m 0,2 km/h N -1,2 C 6,1 C 2,8 km/h
09.03.2012 19:00 4,9 C 64 % 1037,1 hPa 0,0 l/m 0,1 km/h N -1,4 C 4,9 C 0,8 km/h
09.03.2012 20:00 2,1 C 75 % 1037,4 hPa 0,0 l/m 0,0 km/h N -1,9 C 2,1 C 0,4 km/h
09.03.2012 21:00 0,5 C 80 % 1037,7 hPa 0,0 l/m 0,0 km/h N -2,5 C 0,5 C 0,0 km/h
09.03.2012 22:00 1,1 C 79 % 1037,7 hPa 0,0 l/m 0,2 km/h N -2,1 C 1,1 C 2,4 km/h
09.03.2012 23:00 1,7 C 76 % 1037,5 hPa 0,0 l/m 0,5 km/h N -2,1 C 1,7 C 4,0 km/h
10.03.2012 00:00 0,7 C 78 % 1037,4 hPa 0,0 l/m 0,1 km/h N -2,8 C 0,7 C 1,6 km/h
10.03.2012 01:00 -1,1 C 83 % 1037,1 hPa 0,0 l/m 0,0 km/h N -3,6 C -1,1 C 0,0 km/h
10.03.2012 02:00 -2,3 C 84 % 1036,9 hPa 0,0 l/m 0,0 km/h N -4,6 C -2,3 C 1,6 km/h
10.03.2012 03:00 -2,8 C 84 % 1036,6 hPa 0,0 l/m 0,0 km/h N -5,2 C -2,8 C 0,4 km/h
10.03.2012 04:00 -3,2 C 83 % 1036,6 hPa 0,0 l/m 0,0 km/h N -5,7 C -3,2 C 0,0 km/h
10.03.2012 05:00 -3,5 C 83 % 1036,3 hPa 0,0 l/m 0,0 km/h N -5,9 C -3,5 C 0,4 km/h
10.03.2012 06:00 -3,2 C 83 % 1036,4 hPa 0,0 l/m 0,0 km/h N -5,7 C -3,2 C 0,0 km/h
10.03.2012 07:00 -1,3 C 84 % 1036,7 hPa 0,0 l/m 0,0 km/h N -3,7 C -1,3 C 1,2 km/h
10.03.2012 08:00 2,4 C 76 % 1036,7 hPa 0,0 l/m 0,5 km/h N -1,5 C 2,4 C 5,6 km/h
10.03.2012 09:00 7,4 C 55 % 1036,2 hPa 0,0 l/m 8,1 km/h N -1,1 C 5,8 C 20,1 km/h
10.03.2012 10:00 8,8 C 52 % 1035,9 hPa 0,0 l/m 9,0 km/h N -0,4 C 7,0 C 21,7 km/h
10.03.2012 11:00 9,4 C 47 % 1035,3 hPa 0,0 l/m 10,5 km/h N -1,4 C 6,7 C 24,1 km/h
10.03.2012 12:00 10,1 C 43 % 1034,6 hPa 0,0 l/m 9,6 km/h N -2,1 C 8,0 C 21,7 km/h
10.03.2012 13:00 10,6 C 39 % 1033,8 hPa 0,0 l/m 8,7 km/h N -2,8 C 9,1 C 19,7 km/h
10.03.2012 14:00 10,9 C 36 % 1033,1 hPa 0,0 l/m 8,4 km/h N -3,7 C 9,6 C 20,1 km/h
10.03.2012 15:00 10,8 C 34 % 1032,3 hPa 0,0 l/m 7,6 km/h N -4,6 C 10,0 C 20,1 km/h
10.03.2012 16:00 10,6 C 36 % 1031,7 hPa 0,0 l/m 6,7 km/h N -3,7 C 10,3 C 18,5 km/h
10.03.2012 17:00 9,5 C 39 % 1031,5 hPa 0,0 l/m 4,5 km/h N -3,9 C 9,5 C 17,7 km/h
10.03.2012 18:00 8,3 C 43 % 1031,3 hPa 0,0 l/m 7,1 km/h N -3,5 C 7,6 C 16,5 km/h
10.03.2012 19:00 7,7 C 47 % 1030,8 hPa 0,0 l/m 5,9 km/h N -2,9 C 7,6 C 14,9 km/h
10.03.2012 20:00 7,4 C 47 % 1030,4 hPa 0,0 l/m 5,3 km/h N -3,1 C 6,8 C 14,9 km/h
10.03.2012 21:00 7,6 C 50 % 1030,0 hPa 0,0 l/m 8,1 km/h N -2,3 C 6,2 C 22,5 km/h
10.03.2012 22:00 7,5 C 52 % 1029,8 hPa 0,0 l/m 9,4 km/h N -1,8 C 5,3 C 23,3 km/h
10.03.2012 23:00 7,6 C 53 % 1029,4 hPa 0,0 l/m 9,8 km/h N -1,3 C 5,2 C 25,0 km/h
11.03.2012 00:00 7,5 C 62 % 1029,1 hPa 0,0 l/m 15,6 km/h N 0,7 C 1,9 C 34,2 km/h
11.03.2012 01:00 6,3 C 71 % 1028,6 hPa 0,0 l/m 15,0 km/h N 1,4 C 0,7 C 31,4 km/h
11.03.2012 02:00 6,3 C 71 % 1027,2 hPa 0,0 l/m 14,6 km/h N 1,3 C 0,8 C 35,0 km/h
11.03.2012 03:00 6,4 C 69 % 1026,3 hPa 0,0 l/m 9,6 km/h N 1,2 C 3,9 C 24,9 km/h
11.03.2012 04:00 7,0 C 67 % 1025,4 hPa 0,0 l/m 13,8 km/h N 1,3 C 2,1 C 33,8 km/h
11.03.2012 05:00 7,6 C 66 % 1024,9 hPa 0,0 l/m 18,0 km/h N 1,8 C 1,0 C 38,6 km/h
11.03.2012 06:00 7,5 C 69 % 1024,8 hPa 0,0 l/m 13,3 km/h N 2,1 C 3,0 C 31,4 km/h
11.03.2012 07:00 7,5 C 70 % 1024,3 hPa 0,0 l/m 9,9 km/h N 2,3 C 5,0 C 26,9 km/h
11.03.2012 08:00 7,6 C 70 % 1023,8 hPa 0,0 l/m 12,7 km/h N 2,5 C 3,5 C 32,2 km/h
11.03.2012 09:00 7,5 C 72 % 1023,6 hPa 0,0 l/m 15,5 km/h N 2,8 C 1,9 C 34,2 km/h
11.03.2012 10:00 7,5 C 74 % 1023,7 hPa 0,0 l/m 15,2 km/h N 3,1 C 2,1 C 32,6 km/h
11.03.2012 11:00 7,6 C 75 % 1023,4 hPa 0,0 l/m 15,9 km/h N 3,3 C 1,8 C 33,4 km/h
11.03.2012 12:00 8,0 C 73 % 1023,1 hPa 0,0 l/m 16,2 km/h N 3,5 C 2,2 C 34,2 km/h
11.03.2012 13:00 7,2 C 78 % 1022,8 hPa 0,0 l/m 17,3 km/h N 3,6 C 0,8 C 35,4 km/h
11.03.2012 14:00 7,7 C 77 % 1022,3 hPa 0,0 l/m 18,5 km/h N 3,9 C 0,9 C 35,0 km/h
11.03.2012 15:00 7,9 C 71 % 1022,4 hPa 0,0 l/m 17,6 km/h N 2,9 C 1,5 C 37,0 km/h
11.03.2012 16:00 8,0 C 70 % 1022,2 hPa 0,3 l/m 16,9 km/h N 2,8 C 1,8 C 36,6 km/h
11.03.2012 17:00 7,8 C 66 % 1022,5 hPa 0,0 l/m 19,2 km/h N 1,9 C 0,8 C 39,4 km/h
11.03.2012 18:00 7,7 C 65 % 1022,8 hPa 0,0 l/m 20,5 km/h N 1,5 C 0,1 C 43,0 km/h
11.03.2012 19:00 7,7 C 65 % 1023,2 hPa 0,0 l/m 20,7 km/h N 1,4 C 0,0 C 39,4 km/h
11.03.2012 20:00 7,3 C 66 % 1023,6 hPa 0,0 l/m 18,0 km/h N 1,2 C 0,5 C 39,4 km/h
11.03.2012 21:00 7,1 C 66 % 1024,0 hPa 0,0 l/m 18,1 km/h N 1,2 C 0,2 C 35,0 km/h
11.03.2012 22:00 6,9 C 67 % 1024,1 hPa 0,0 l/m 17,5 km/h N 1,2 C 0,3 C 37,0 km/h
11.03.2012 23:00 6,9 C 67 % 1023,9 hPa 0,0 l/m 16,5 km/h N 1,2 C 0,7 C 35,0 km/h
Min-Datum _ 07.03.12 10.03.12 08.03.12 - 05.03.12 - 07.03.12 07.03.12 05.03.12
_ Min-Zeit 06:15 14:45 03:15 - 00:00 - 06:00 06:45 00:00
Minimum _ -7,8 C 31 % 1018,5 hPa - 0,0 km/h - -10,4 C -7,7 C 0,0 km/h
Max-Datum _ 10.03.12 05.03.12 09.03.12 08.03.12 11.03.12 - 11.03.12 10.03.12 11.03.12
_ Max-Zeit 14:30 07:15 21:45 12:00 19:15 - 14:15 15:00 12:30
Maximum _ 11,4 C 84 % 1037,8 hPa 0,8 l/m 22,0 km/h
N
- 4,0 C 10,9 C 45,1 km/h
N
Durchschnitt _ 3,4 C 66 % 1027,0 hPa #2,3 l/m 6,0 km/h N -2,7 C 1,8 C 14,8 km/h